createdAt,value
2022-11-17T02:48:40.964Z,0.04
2022-11-17T03:03:40.677Z,0
2022-11-17T03:48:40.866Z,0.77
2022-11-17T06:48:40.607Z,3.88
2022-11-17T07:18:41.015Z,4.72
2022-11-17T07:33:41.029Z,4.94
2022-11-17T07:48:40.676Z,8.54
2022-11-17T08:03:40.557Z,8.81
2022-11-17T08:18:41.140Z,12.2
2022-11-17T08:33:40.821Z,3.93
2022-11-17T08:48:41.244Z,2.73
2022-11-17T09:03:40.923Z,1.83
2022-11-17T09:18:40.850Z,6.99
2022-11-17T09:48:41.334Z,1.48
2022-11-17T10:03:45.330Z,0.96
2022-11-17T10:18:40.131Z,4.94
2022-11-17T10:33:40.639Z,1.43
2022-11-17T10:48:40.344Z,1.92
2022-11-17T11:03:40.690Z,3.26
2022-11-17T11:18:40.064Z,5.93
2022-11-17T11:33:39.953Z,2.88
2022-11-17T11:48:40.287Z,3.48
2022-11-17T12:03:40.156Z,4.78
2022-11-17T12:18:40.656Z,3.3
2022-11-17T12:48:40.566Z,3.81
2022-11-17T13:03:40.004Z,25.01
2022-11-17T13:18:40.575Z,13.24
2022-11-17T13:33:40.588Z,3.81
2022-11-17T13:48:40.671Z,6.16
2022-11-17T14:03:40.037Z,4.39
2022-11-17T14:18:40.559Z,3.22
2022-11-17T14:33:40.590Z,8.14
2022-11-17T14:48:40.452Z,0.9
2022-11-17T15:03:40.390Z,3.24
2022-11-17T15:48:39.907Z,2.94
2022-11-17T16:03:40.640Z,7.5
2022-11-17T16:18:40.070Z,9.51
2022-11-17T16:33:40.516Z,15.54
2022-11-17T16:48:39.914Z,22.22
2022-11-17T17:03:40.273Z,28.47
2022-11-17T17:18:40.224Z,19.17
2022-11-17T17:33:40.195Z,17.11
2022-11-17T17:48:40.553Z,16.24
2022-11-17T18:03:40.658Z,11.02
2022-11-17T18:18:40.404Z,10.6
2022-11-17T18:33:40.570Z,26.56
2022-11-17T18:48:39.875Z,7.97
2022-11-17T19:03:40.022Z,9.39
2022-11-17T19:18:40.260Z,19.39
2022-11-17T19:33:40.541Z,11.83
2022-11-17T19:48:39.973Z,15.15
2022-11-17T20:03:40.507Z,22.86
2022-11-17T20:18:40.184Z,8.92
2022-11-17T20:33:40.474Z,14.71
2022-11-17T20:48:39.935Z,9.3
2022-11-17T21:03:40.356Z,7.51
2022-11-17T21:18:40.598Z,4.86
2022-11-17T21:33:39.863Z,4.6
2022-11-17T21:48:39.947Z,6.3
2022-11-17T22:03:40.158Z,4.26
2022-11-17T22:33:39.996Z,2.13
2022-11-17T23:03:40.794Z,2.77
2022-11-17T23:18:39.893Z,3.35
